Time;durP1;ratioP1;P1;durP2;ratioP2;P2;SDS_P1;SDS_P2;PMS_P1;PMS_P2;Temp;Humidity;BMP_temperature;BMP_pressure;BME280_temperature;BME280_humidity;BME280_pressure;Samples;Min_cycle;Max_cycle;Signal;HPM_P1;HPM_P2
2023/05/01 00:01:47;;;;;;;1.50;1.40;;;;;;;8.45;100.00;100316.42;106851;1269;64752;-85
2023/05/01 00:04:15;;;;;;;1.80;1.40;;;;;;;8.43;100.00;100317.75;105572;1254;668870;-84
2023/05/01 00:06:43;;;;;;;3.60;1.50;;;;;;;8.42;100.00;100319.55;105644;1260;61798;-83
2023/05/01 00:09:10;;;;;;;2.80;1.70;;;;;;;8.42;100.00;100312.77;105830;1254;61358;-84
2023/05/01 00:11:38;;;;;;;2.00;1.70;;;;;;;8.43;100.00;100310.07;105769;1254;72876;-85
2023/05/01 00:14:05;;;;;;;2.00;1.90;;;;;;;8.44;100.00;100308.14;105771;1257;63773;-85
2023/05/01 00:16:34;;;;;;;3.50;1.50;;;;;;;8.42;100.00;100311.21;105918;1254;73724;-87
2023/05/01 00:19:03;;;;;;;1.70;1.50;;;;;;;8.38;100.00;100314.69;105756;1254;63160;-86
2023/05/01 00:21:30;;;;;;;2.20;1.50;;;;;;;8.35;100.00;100315.58;106016;1254;61278;-83
2023/05/01 00:23:57;;;;;;;1.70;1.60;;;;;;;8.35;100.00;100312.42;105849;1254;74664;-86
2023/05/01 00:26:29;;;;;;;2.50;2.10;;;;;;;8.38;100.00;100310.85;105764;1254;64050;-87
2023/05/01 00:28:57;;;;;;;3.20;3.00;;;;;;;8.39;100.00;100308.90;105919;1257;72636;-85
2023/05/01 00:31:24;;;;;;;2.30;1.80;;;;;;;8.37;100.00;100307.62;105749;1254;62762;-85
2023/05/01 00:33:52;;;;;;;2.70;1.60;;;;;;;8.35;100.00;100308.61;105821;1260;59746;-85
2023/05/01 00:36:19;;;;;;;4.00;2.00;;;;;;;8.34;100.00;100308.98;106701;1254;72900;-86
2023/05/01 00:38:46;;;;;;;2.10;1.50;;;;;;;8.34;100.00;100308.63;109609;1254;63850;-85
2023/05/01 00:41:13;;;;;;;1.30;1.30;;;;;;;8.34;100.00;100311.41;108323;1258;73194;-83
2023/05/01 00:43:40;;;;;;;2.10;1.40;;;;;;;8.34;100.00;100313.52;106409;1259;61636;-84
2023/05/01 00:46:07;;;;;;;1.20;1.20;;;;;;;8.35;100.00;100315.42;106324;1258;61396;-84
2023/05/01 00:48:34;;;;;;;1.90;1.40;;;;;;;8.38;100.00;100318.52;108964;1254;74080;-83
2023/05/01 00:51:04;;;;;;;3.40;2.40;;;;;;;8.41;100.00;100317.83;107862;1257;63580;-85
2023/05/01 00:53:33;;;;;;;2.30;1.50;;;;;;;8.46;100.00;100318.80;105839;1254;73465;-84
2023/05/01 00:56:00;;;;;;;2.50;1.60;;;;;;;8.48;100.00;100319.39;105578;1260;62670;-86
2023/05/01 00:58:27;;;;;;;1.50;1.40;;;;;;;8.49;100.00;100321.94;105743;1254;61371;-87
2023/05/01 01:00:55;;;;;;;2.00;1.50;;;;;;;8.49;100.00;100324.02;105790;1259;74049;-83
2023/05/01 01:03:23;;;;;;;3.60;2.80;;;;;;;8.49;100.00;100324.20;108450;1254;63806;-83
2023/05/01 01:05:55;;;;;;;1.50;1.40;;;;;;;8.52;100.00;100328.78;107901;1260;72688;-82
2023/05/01 01:08:26;;;;;;;1.60;1.50;;;;;;;8.49;100.00;100328.36;106701;1260;62031;-84
2023/05/01 01:11:45;;;;;;;2.90;1.80;;;;;;;8.48;100.00;100324.44;106120;1251;61413;-85
2023/05/01 01:14:35;;;;;;;1.60;1.50;;;;;;;8.47;100.00;100316.47;105525;1263;72828;-87
2023/05/01 01:17:29;;;;;;;2.10;1.30;;;;;;;8.48;100.00;100315.73;105488;1262;65614;-84
2023/05/01 01:20:08;;;;;;;1.90;1.80;;;;;;;8.49;100.00;100315.50;105433;1261;74591;-88
2023/05/01 01:22:35;;;;;;;2.70;2.10;;;;;;;8.49;100.00;100315.17;105349;1259;61808;-87
2023/05/01 01:25:23;;;;;;;1.60;1.50;;;;;;;8.49;100.00;100317.73;105531;1260;61221;-85
2023/05/01 01:28:42;;;;;;;1.40;1.30;;;;;;;8.49;100.00;100316.02;105541;1260;73683;-86
2023/05/01 01:31:47;;;;;;;1.30;1.10;;;;;;;8.48;100.00;100312.40;106768;1268;64891;-84
2023/05/01 01:34:15;;;;;;;;;;;;;;;8.49;100.00;100314.11;105412;1265;73686;-85
2023/05/01 01:36:46;;;;;;;2.10;2.00;;;;;;;8.47;100.00;100311.95;105098;1267;62986;-85
2023/05/01 01:39:29;;;;;;;2.20;2.00;;;;;;;8.46;100.00;100312.67;104952;1269;59760;-86
2023/05/01 01:41:59;;;;;;;4.50;1.80;;;;;;;8.48;100.00;100313.09;105099;1267;73926;-88
2023/05/01 01:44:33;;;;;;;2.20;2.00;;;;;;;8.50;100.00;100313.88;105042;1269;63821;-85
2023/05/01 01:47:03;;;;;;;3.60;2.10;;;;;;;8.50;100.00;100316.66;105031;1267;73562;-87
2023/05/01 01:49:30;;;;;;;2.50;1.70;;;;;;;8.48;100.00;100317.10;105148;1260;62698;-86
2023/05/01 01:51:58;;;;;;;3.70;1.80;;;;;;;8.49;100.00;100323.48;105539;1263;61335;-89
2023/05/01 01:54:30;;;;;;;3.00;1.70;;;;;;;8.50;100.00;100323.95;107458;1263;72942;-84
2023/05/01 01:56:58;;;;;;;2.60;1.70;;;;;;;8.53;100.00;100323.31;108777;1257;64241;-85
2023/05/01 01:59:25;;;;;;;2.20;1.80;;;;;;;8.53;100.00;100324.52;106911;1260;73295;-85
2023/05/01 02:01:52;;;;;;;2.00;1.80;;;;;;;8.51;100.00;100326.00;105716;1260;61862;-83
2023/05/01 02:04:20;;;;;;;2.60;2.40;;;;;;;8.52;100.00;100328.78;105408;1261;61145;-87
2023/05/01 02:06:46;;;;;;;2.30;2.00;;;;;;;8.50;100.00;100331.63;105881;1251;73993;-81
2023/05/01 02:09:14;;;;;;;2.30;2.20;;;;;;;8.50;100.00;100335.81;108843;1251;63505;-83
2023/05/01 02:11:43;;;;;;;1.90;1.80;;;;;;;8.51;100.00;100339.77;107163;1256;73926;-85
2023/05/01 02:14:10;;;;;;;2.50;2.00;;;;;;;8.49;100.00;100343.38;106530;1260;62752;-86
2023/05/01 02:16:37;;;;;;;4.10;2.60;;;;;;;8.46;100.00;100347.73;105939;1260;60403;-85
2023/05/01 02:19:04;;;;;;;2.90;2.20;;;;;;;8.41;100.00;100353.92;105994;1256;74260;-85
2023/05/01 02:21:35;;;;;;;2.40;1.70;;;;;;;8.34;100.00;100354.27;106893;1253;64666;-84
2023/05/01 02:24:03;;;;;;;2.40;2.20;;;;;;;8.29;100.00;100359.06;109588;1252;72675;-84
2023/05/01 02:26:30;;;;;;;2.60;2.10;;;;;;;8.28;100.00;100360.36;108984;1253;61509;-85
2023/05/01 02:28:58;;;;;;;2.60;2.10;;;;;;;8.27;100.00;100361.27;109368;1252;60221;-84
2023/05/01 02:31:28;;;;;;;2.20;2.00;;;;;;;8.28;100.00;100362.63;109532;1254;73079;-85
2023/05/01 02:33:57;;;;;;;2.40;2.20;;;;;;;8.30;100.00;100364.41;109459;1252;63795;-85
2023/05/01 02:36:27;;;;;;;2.30;2.00;;;;;;;8.33;100.00;100365.63;109163;1252;72501;-84
2023/05/01 02:38:54;;;;;;;2.60;1.90;;;;;;;8.36;100.00;100366.73;109190;1253;61879;-85
2023/05/01 02:41:21;;;;;;;2.00;1.60;;;;;;;8.37;100.00;100366.13;108897;1254;61446;-85
2023/05/01 02:43:52;;;;;;;3.50;1.50;;;;;;;8.38;100.00;100371.83;108804;1253;72689;-85
2023/05/01 02:46:20;;;;;;;1.80;1.70;;;;;;;8.41;100.00;100377.24;108091;1250;63968;-86
2023/05/01 02:48:48;;;;;;;1.90;1.50;;;;;;;8.43;100.00;100379.10;108892;1251;73560;-85
2023/05/01 02:51:15;;;;;;;1.90;1.80;;;;;;;8.41;100.00;100381.98;109643;1251;60527;-85
2023/05/01 02:53:42;;;;;;;2.00;1.80;;;;;;;8.41;100.00;100381.41;106027;1257;60417;-87
2023/05/01 02:56:16;;;;;;;1.70;1.60;;;;;;;8.43;100.00;100384.30;106420;1257;73997;-86
2023/05/01 02:58:43;;;;;;;1.70;1.60;;;;;;;8.43;100.00;100386.60;108124;1251;64654;-85
2023/05/01 03:01:11;;;;;;;4.00;1.80;;;;;;;8.42;100.00;100390.11;109469;1251;72460;-86
2023/05/01 03:03:38;;;;;;;1.50;1.40;;;;;;;8.38;100.00;100391.88;106216;1251;63312;-87
2023/05/01 03:06:05;;;;;;;1.30;1.20;;;;;;;8.31;100.00;100399.20;106157;1251;62184;-86
2023/05/01 03:08:32;;;;;;;1.90;1.50;;;;;;;8.27;100.00;100398.19;105972;1251;73096;-85
2023/05/01 03:11:04;;;;;;;1.50;1.40;;;;;;;8.24;100.00;100403.40;105980;1251;64893;-83
2023/05/01 03:13:31;;;;;;;2.20;1.30;;;;;;;8.25;100.00;100405.46;107330;1251;73853;-81
2023/05/01 03:15:59;;;;;;;1.40;1.20;;;;;;;8.29;100.00;100411.50;109444;1251;63086;-84
2023/05/01 03:18:26;;;;;;;1.40;1.30;;;;;;;8.32;100.00;100418.33;107753;1251;60919;-82
2023/05/01 03:20:53;;;;;;;1.00;1.00;;;;;;;8.35;100.00;100419.56;106346;1251;72997;-84
2023/05/01 03:23:22;;;;;;;1.70;1.60;;;;;;;8.37;100.00;100420.64;106063;1257;65306;-85
2023/05/01 03:25:49;;;;;;;1.80;1.40;;;;;;;8.40;100.00;100423.28;105919;1251;73627;-85
2023/05/01 03:28:17;;;;;;;3.30;1.80;;;;;;;8.44;100.00;100428.52;105953;1251;63658;-86
2023/05/01 03:30:44;;;;;;;1.80;1.30;;;;;;;8.46;100.00;100426.49;106548;1251;62060;-88
2023/05/01 03:33:11;;;;;;;2.00;1.90;;;;;;;8.43;100.00;100431.51;105997;1257;74666;-85
2023/05/01 03:35:38;;;;;;;1.50;1.40;;;;;;;8.39;100.00;100432.73;106134;1257;65214;-84
2023/05/01 03:38:07;;;;;;;4.30;2.00;;;;;;;8.35;100.00;100435.58;106051;1256;73997;-84
2023/05/01 03:40:58;;;;;;;2.80;1.20;;;;;;;8.31;100.00;100439.97;106092;1257;61985;-84
2023/05/01 03:43:51;;;;;;;3.10;1.40;;;;;;;8.32;100.00;100445.33;106117;1256;60234;-85
2023/05/01 03:46:29;;;;;;;1.70;1.60;;;;;;;8.29;100.00;100448.75;106402;1251;72893;-85
2023/05/01 03:48:56;;;;;;;1.60;1.50;;;;;;;8.26;100.00;100449.27;108680;1251;63310;-85
2023/05/01 03:51:26;;;;;;;1.20;1.10;;;;;;;8.27;100.00;100454.61;109463;1251;72663;-84
2023/05/01 03:53:57;;;;;;;3.30;1.20;;;;;;;8.31;100.00;100456.31;109804;1251;61855;-85
2023/05/01 03:56:26;;;;;;;1.10;1.00;;;;;;;8.36;100.00;100458.02;109785;1251;60276;-84
2023/05/01 03:58:53;;;;;;;1.10;1.00;;;;;;;8.36;100.00;100458.66;109779;1251;73014;-83
2023/05/01 04:01:20;;;;;;;1.80;1.10;;;;;;;8.36;100.00;100459.54;109507;1251;63738;-84
2023/05/01 04:03:47;;;;;;;1.50;1.40;;;;;;;8.39;100.00;100463.93;109012;1251;73113;-84
2023/05/01 04:06:36;;;;;;;3.60;1.10;;;;;;;8.40;100.00;100463.18;108784;1254;60388;-84
2023/05/01 04:09:03;;;;;;;1.50;1.40;;;;;;;8.39;100.00;100457.46;108876;1253;60194;-85
2023/05/01 04:11:30;;;;;;;1.80;1.60;;;;;;;8.41;100.00;100458.09;108697;1253;74305;-84
2023/05/01 04:13:57;;;;;;;1.90;1.80;;;;;;;8.42;100.00;100461.51;108798;1252;65516;-86
2023/05/01 04:16:24;;;;;;;2.70;1.70;;;;;;;8.42;100.00;100462.37;106468;1254;73390;-87
2023/05/01 04:18:51;;;;;;;2.00;1.80;;;;;;;8.44;100.00;100462.30;106794;1253;61924;-81
2023/05/01 04:21:18;;;;;;;1.60;1.50;;;;;;;8.44;100.00;100467.69;107567;1253;60405;-83
2023/05/01 04:23:48;;;;;;;2.30;1.90;;;;;;;8.46;100.00;100468.61;106946;1254;74813;-84
2023/05/01 04:26:15;;;;;;;5.00;2.00;;;;;;;8.50;100.00;100472.94;106583;1254;64270;-86
2023/05/01 04:28:43;;;;;;;2.20;1.90;;;;;;;8.56;100.00;100474.58;105904;1253;72655;-85
2023/05/01 04:31:10;;;;;;;2.40;2.00;;;;;;;8.62;100.00;100477.55;105733;1253;63270;-85
2023/05/01 04:33:38;;;;;;;1.90;1.80;;;;;;;8.67;100.00;100475.88;108438;1252;59314;-85
2023/05/01 04:36:06;;;;;;;2.70;2.50;;;;;;;8.68;100.00;100477.88;108250;1257;73586;-86
2023/05/01 04:38:35;;;;;;;2.60;2.10;;;;;;;8.70;100.00;100478.30;106033;1254;63702;-86
2023/05/01 04:41:04;;;;;;;2.90;2.10;;;;;;;8.74;100.00;100474.63;105536;1256;73004;-85
2023/05/01 04:43:32;;;;;;;2.10;1.90;;;;;;;8.78;100.00;100478.61;105636;1256;61753;-86
2023/05/01 04:45:59;;;;;;;2.40;2.20;;;;;;;8.82;100.00;100482.90;105651;1256;60644;-86
2023/05/01 04:48:26;;;;;;;2.00;1.80;;;;;;;8.88;100.00;100485.54;105593;1258;74264;-86
2023/05/01 04:50:54;;;;;;;2.20;2.00;;;;;;;8.96;100.00;100490.14;105374;1257;64831;-86
2023/05/01 04:53:22;;;;;;;2.80;2.50;;;;;;;9.03;100.00;100489.09;105528;1258;71964;-83
2023/05/01 04:55:49;;;;;;;2.60;2.40;;;;;;;9.07;100.00;100492.66;105786;1256;60517;-86
2023/05/01 04:58:17;;;;;;;3.10;2.80;;;;;;;9.06;100.00;100491.30;107528;1257;61316;-85
2023/05/01 05:00:46;;;;;;;2.80;2.60;;;;;;;9.07;100.00;100494.92;108671;1256;73862;-86
2023/05/01 05:03:19;;;;;;;4.00;2.70;;;;;;;9.07;100.00;100491.42;107334;1256;64337;-84
2023/05/01 05:05:46;;;;;;;4.80;2.80;;;;;;;9.04;100.00;100493.16;105698;1257;72766;-86
2023/05/01 05:08:14;;;;;;;2.60;2.40;;;;;;;9.02;100.00;100492.05;106015;1256;62936;-88
2023/05/01 05:10:46;;;;;;;3.40;2.70;;;;;;;9.03;100.00;100493.76;108003;1256;61324;-87
2023/05/01 05:13:22;;;;;;;2.70;2.00;;;;;;;9.04;100.00;100495.43;107014;1260;74815;-89
2023/05/01 05:15:56;;;;;;;2.60;2.40;;;;;;;9.03;100.00;100502.63;105757;1257;64846;-87
2023/05/01 05:18:23;;;;;;;3.00;2.40;;;;;;;9.03;100.00;100503.53;105846;1254;72608;-89
2023/05/01 05:20:50;;;;;;;2.80;2.60;;;;;;;9.04;100.00;100502.60;106066;1257;62728;-89
2023/05/01 05:23:18;;;;;;;3.00;2.70;;;;;;;9.09;100.00;100506.33;107058;1252;61086;-82
2023/05/01 05:25:44;;;;;;;3.10;2.60;;;;;;;9.18;100.00;100509.33;107474;1253;73956;-83
2023/05/01 05:28:12;;;;;;;2.80;2.50;;;;;;;9.27;100.00;100511.06;107306;1257;64772;-85
2023/05/01 05:30:39;;;;;;;4.50;3.00;;;;;;;9.37;100.00;100512.11;105980;1259;74121;-90
2023/05/01 05:33:07;;;;;;;2.50;2.30;;;;;;;9.45;100.00;100514.27;105894;1259;61393;-85
2023/05/01 05:35:35;;;;;;;5.60;2.70;;;;;;;9.51;100.00;100514.63;105938;1253;60657;-86
2023/05/01 05:38:02;;;;;;;2.40;2.30;;;;;;;9.55;100.00;100517.84;106314;1256;75167;-89
2023/05/01 05:40:32;;;;;;;4.40;3.00;;;;;;;9.56;100.00;100516.06;106008;1256;64721;-87
2023/05/01 05:43:00;;;;;;;3.10;2.90;;;;;;;9.51;100.00;100515.31;106027;1253;71291;-88
2023/05/01 05:45:28;;;;;;;2.60;2.40;;;;;;;9.46;100.00;100516.60;105942;1253;62970;-88
2023/05/01 05:47:55;;;;;;;6.00;2.80;;;;;;;9.44;100.00;100517.95;106131;1254;61100;-89
2023/05/01 05:50:22;;;;;;;13.50;9.80;;;;;;;9.44;100.00;100516.73;106465;1254;74619;-87
2023/05/01 05:52:50;;;;;;;22.90;15.50;;;;;;;9.50;100.00;100518.50;109081;1253;64815;-89
2023/05/01 05:55:17;;;;;;;4.90;3.20;;;;;;;9.55;100.00;100515.27;107308;1254;73006;-90
2023/05/01 05:57:56;;;;;;;3.90;3.00;;;;;;;9.57;100.00;100520.39;105954;1257;60472;-88
2023/05/01 06:00:23;;;;;;;9.90;8.00;;;;;;;9.58;100.00;100523.63;106072;1257;60928;-89
2023/05/01 06:02:52;;;;;;;10.00;9.00;;;;;;;9.56;100.00;100528.84;105888;1258;72810;-90
2023/05/01 06:05:20;;;;;;;3.30;3.00;;;;;;;9.48;100.00;100533.44;105819;1256;64936;-90
2023/05/01 06:07:47;;;;;;;6.50;3.70;;;;;;;9.38;100.00;100537.49;105983;1254;73489;-88
2023/05/01 06:10:13;;;;;;;1.70;1.60;;;;;;;9.25;100.00;100538.91;106060;1252;61902;-87
2023/05/01 06:12:41;;;;;;;9.50;8.10;;;;;;;9.17;100.00;100542.34;106034;1254;61488;-88
2023/05/01 06:15:16;;;;;;;12.90;10.80;;;;;;;9.13;100.00;100544.80;105933;1254;73994;-88
2023/05/01 06:17:49;;;;;;;3.80;2.80;;;;;;;9.09;100.00;100548.55;106442;1257;65031;-89
2023/05/01 06:20:17;;;;;;;5.60;2.60;;;;;;;9.08;100.00;100552.44;106174;1254;72608;-89
2023/05/01 06:22:45;;;;;;;11.00;9.80;;;;;;;9.15;100.00;100552.05;105994;1254;62624;-88
2023/05/01 06:25:21;;;;;;;2.00;1.80;;;;;;;9.28;100.00;100551.85;108031;1253;60370;-89
2023/05/01 06:27:52;;;;;;;2.30;2.10;;;;;;;9.45;100.00;100556.63;107756;1252;74567;-86
2023/05/01 06:30:20;;;;;;;3.00;1.80;;;;;;;9.64;100.00;100553.34;108432;1252;64258;-88
2023/05/01 06:32:48;;;;;;;1.80;1.50;;;;;;;9.72;100.00;100557.03;108399;1253;73021;-87
2023/05/01 06:35:15;;;;;;;3.60;2.30;;;;;;;9.77;100.00;100564.11;106723;1254;60521;-89
2023/05/01 06:37:42;;;;;;;2.80;1.60;;;;;;;9.79;100.00;100564.70;105890;1257;60459;-87
2023/05/01 06:40:10;;;;;;;2.60;1.30;;;;;;;9.76;100.00;100565.00;105980;1253;74856;-88
2023/05/01 06:42:38;;;;;;;0.90;0.90;;;;;;;9.72;100.00;100567.53;106006;1254;63649;-90
2023/05/01 06:45:06;;;;;;;1.60;1.50;;;;;;;9.66;100.00;100573.08;105996;1257;73612;-91
2023/05/01 06:47:34;;;;;;;2.40;1.30;;;;;;;9.64;100.00;100573.55;105998;1253;63039;-89
2023/05/01 06:50:03;;;;;;;1.60;1.40;;;;;;;9.63;100.00;100572.23;105970;1257;60400;-88
2023/05/01 06:52:33;;;;;;;1.90;0.90;;;;;;;9.71;100.00;100577.19;105957;1252;73727;-90
2023/05/01 06:55:00;;;;;;;1.60;1.20;;;;;;;9.79;100.00;100577.79;105782;1258;64766;-89
2023/05/01 06:57:28;;;;;;;2.10;1.10;;;;;;;9.82;100.00;100583.20;105857;1253;72494;-88
2023/05/01 06:59:55;;;;;;;2.30;1.70;;;;;;;9.85;100.00;100592.77;105767;1253;60443;-91
2023/05/01 07:02:23;;;;;;;18.90;14.80;;;;;;;9.85;100.00;100590.68;105985;1253;61118;-90
2023/05/01 07:04:51;;;;;;;11.30;8.90;;;;;;;9.83;100.00;100593.58;105930;1257;73691;-89
2023/05/01 07:07:18;;;;;;;5.70;3.30;;;;;;;9.81;100.00;100603.87;106339;1254;64662;-89
2023/05/01 07:09:45;;;;;;;16.60;12.40;;;;;;;9.73;100.00;100599.39;108506;1253;72766;-88
2023/05/01 07:12:13;;;;;;;1.70;1.50;;;;;;;9.79;100.00;100607.98;109747;1253;62024;-86
2023/05/01 07:14:41;;;;;;;1.50;1.20;;;;;;;9.88;100.00;100614.45;107590;1252;60370;-88
2023/05/01 07:17:08;;;;;;;21.80;15.90;;;;;;;10.04;100.00;100612.33;105998;1253;74389;-90
2023/05/01 07:19:35;;;;;;;1.70;1.50;;;;;;;10.18;100.00;100616.93;106664;1257;65519;-89
2023/05/01 07:22:03;;;;;;;2.20;1.10;;;;;;;10.28;100.00;100622.61;109280;1254;73507;-88
2023/05/01 07:24:31;;;;;;;3.70;2.70;;;;;;;10.34;100.00;100629.45;107750;1256;61172;-86
2023/05/01 07:26:58;;;;;;;3.20;2.60;;;;;;;10.34;100.00;100630.52;106267;1253;60479;-87
2023/05/01 07:29:25;;;;;;;0.80;0.60;;;;;;;10.29;100.00;100635.32;105845;1257;74837;-89
2023/05/01 07:31:52;;;;;;;4.80;3.40;;;;;;;10.25;100.00;100636.26;106302;1256;64775;-88
2023/05/01 07:34:19;;;;;;;2.10;0.80;;;;;;;10.20;100.00;100640.07;106298;1252;74276;-84
2023/05/01 07:36:46;;;;;;;2.20;1.80;;;;;;;10.17;100.00;100643.67;107966;1252;62684;-88
2023/05/01 07:39:13;;;;;;;0.60;0.60;;;;;;;10.17;100.00;100648.08;106688;1253;60511;-91
2023/05/01 07:41:40;;;;;;;0.60;0.50;;;;;;;10.21;100.00;100650.82;106179;1254;75225;-89
2023/05/01 07:44:07;;;;;;;4.90;0.90;;;;;;;10.21;100.00;100650.45;106041;1254;63587;-88
2023/05/01 07:46:35;;;;;;;1.10;0.90;;;;;;;10.25;100.00;100658.24;106056;1254;73895;-89
2023/05/01 07:49:03;;;;;;;1.20;1.10;;;;;;;10.31;100.00;100661.95;106640;1254;61473;-89
2023/05/01 07:51:30;;;;;;;0.80;0.80;;;;;;;10.32;100.00;100658.40;106579;1253;62495;-89
2023/05/01 07:54:02;;;;;;;1.40;1.30;;;;;;;10.27;100.00;100661.30;106327;1256;73517;-88
2023/05/01 07:56:30;;;;;;;1.10;0.80;;;;;;;10.21;100.00;100659.70;106037;1254;65603;-89
2023/05/01 07:58:57;;;;;;;2.00;1.00;;;;;;;10.21;100.00;100663.21;105902;1252;73499;-87
2023/05/01 08:01:24;;;;;;;0.70;0.50;;;;;;;10.22;100.00;100665.27;105870;1253;63167;-89
2023/05/01 08:03:52;;;;;;;1.10;0.70;;;;;;;10.23;100.00;100666.59;106011;1254;60886;-88
2023/05/01 08:06:19;;;;;;;0.30;0.30;;;;;;;10.31;100.00;100671.70;106038;1253;74818;-88
2023/05/01 08:08:46;;;;;;;1.30;0.70;;;;;;;10.39;100.00;100672.36;106048;1256;64586;-89
2023/05/01 08:11:13;;;;;;;0.70;0.60;;;;;;;10.41;100.00;100672.58;105867;1256;73665;-90
2023/05/01 08:13:40;;;;;;;1.00;0.60;;;;;;;10.43;100.00;100671.61;105890;1254;61891;-88
2023/05/01 08:16:06;;;;;;;1.20;0.30;;;;;;;10.42;100.00;100676.02;105862;1254;60457;-89
2023/05/01 08:18:36;;;;;;;0.80;0.40;;;;;;;10.35;100.00;100678.17;105886;1254;74814;-89
2023/05/01 08:21:03;;;;;;;0.80;0.50;;;;;;;10.27;100.00;100684.91;106092;1252;63923;-89
2023/05/01 08:23:30;;;;;;;1.00;0.50;;;;;;;10.20;100.00;100685.31;106141;1254;73692;-88
2023/05/01 08:25:58;;;;;;;22.60;20.10;;;;;;;10.14;100.00;100684.05;105898;1254;62374;-86
2023/05/01 08:28:25;;;;;;;6.90;6.20;;;;;;;10.12;100.00;100681.52;109040;1252;60334;-85
2023/05/01 08:30:52;;;;;;;5.20;4.60;;;;;;;10.10;100.00;100685.49;108206;1253;73782;-88
2023/05/01 08:33:19;;;;;;;7.00;5.60;;;;;;;10.09;100.00;100689.06;105737;1254;64699;-89
2023/05/01 08:35:47;;;;;;;27.70;18.20;;;;;;;10.10;100.00;100693.91;106142;1254;73679;-87
2023/05/01 08:38:15;;;;;;;4.90;3.70;;;;;;;10.08;100.00;100696.78;106531;1254;60479;-88
2023/05/01 08:40:50;;;;;;;1.30;0.90;;;;;;;10.08;100.00;100701.34;107111;1254;60300;-86
2023/05/01 08:43:18;;;;;;;3.10;1.70;;;;;;;10.07;100.00;100700.34;108840;1254;73871;-85
2023/05/01 08:45:46;;;;;;;2.00;0.80;;;;;;;10.06;100.00;100702.19;108309;1256;62869;-84
2023/05/01 08:48:16;;;;;;;2.10;1.00;;;;;;;10.02;100.00;100704.52;107087;1253;73620;-88
2023/05/01 08:50:45;;;;;;;0.70;0.70;;;;;;;9.99;100.00;100706.04;106036;1256;62676;-88
2023/05/01 08:53:14;;;;;;;1.00;0.70;;;;;;;10.03;100.00;100708.44;106055;1254;61342;-86
2023/05/01 08:55:44;;;;;;;2.50;1.70;;;;;;;10.12;100.00;100702.13;106027;1256;73000;-87
2023/05/01 08:58:11;;;;;;;1.10;0.70;;;;;;;10.22;100.00;100706.30;106066;1256;64797;-89
2023/05/01 09:00:38;;;;;;;1.10;0.90;;;;;;;10.28;100.00;100707.56;105991;1254;72133;-88
2023/05/01 09:03:05;;;;;;;1.70;1.40;;;;;;;10.30;100.00;100711.32;106074;1256;63311;-86
2023/05/01 09:05:32;;;;;;;2.20;1.10;;;;;;;10.29;100.00;100711.15;105905;1253;61198;-86
2023/05/01 09:07:59;;;;;;;1.60;1.20;;;;;;;10.34;100.00;100712.27;105981;1256;75630;-88
2023/05/01 09:10:26;;;;;;;1.10;1.00;;;;;;;10.39;100.00;100715.18;106286;1253;64525;-87
2023/05/01 09:12:56;;;;;;;1.20;1.10;;;;;;;10.39;100.00;100726.54;106077;1256;73772;-86
2023/05/01 09:15:27;;;;;;;4.60;3.00;;;;;;;10.39;100.00;100721.10;105899;1254;61960;-89
2023/05/01 09:17:54;;;;;;;10.40;7.90;;;;;;;10.37;100.00;100727.14;106693;1252;60987;-87
2023/05/01 09:20:23;;;;;;;34.10;23.10;;;;;;;10.37;100.00;100728.90;107767;1253;75621;-88
2023/05/01 09:22:50;;;;;;;7.70;6.20;;;;;;;10.40;100.00;100734.70;109645;1252;63825;-87
2023/05/01 09:25:18;;;;;;;3.30;2.10;;;;;;;10.45;100.00;100732.63;108123;1252;72703;-86
2023/05/01 09:27:45;;;;;;;1.40;1.30;;;;;;;10.56;100.00;100735.34;105899;1254;62080;-88
2023/05/01 09:30:35;;;;;;;3.20;1.80;;;;;;;10.67;100.00;100733.63;106782;1254;60619;-89
2023/05/01 09:33:05;;;;;;;2.30;2.00;;;;;;;10.87;100.00;100731.23;109151;1253;73333;-87
2023/05/01 09:35:32;;;;;;;16.70;12.40;;;;;;;11.12;100.00;100734.45;108112;1253;64401;-87
2023/05/01 09:38:00;;;;;;;3.50;2.40;;;;;;;11.38;100.00;100734.27;106028;1253;73639;-87
2023/05/01 09:40:27;;;;;;;2.10;1.80;;;;;;;11.59;100.00;100736.64;106118;1253;61421;-90
2023/05/01 09:42:55;;;;;;;4.60;4.00;;;;;;;11.76;100.00;100739.63;106380;1254;61223;-89
2023/05/01 09:45:22;;;;;;;2.50;1.80;;;;;;;11.87;100.00;100741.94;108212;1253;73828;-86
2023/05/01 09:47:49;;;;;;;8.10;5.90;;;;;;;11.93;99.99;100743.47;109773;1252;63774;-88
2023/05/01 09:50:33;;;;;;;21.00;16.10;;;;;;;12.02;100.00;100747.48;107482;1253;74102;-87
2023/05/01 09:53:03;;;;;;;2.40;1.90;;;;;;;12.14;99.07;100749.88;107103;1253;61906;-89
2023/05/01 09:55:31;;;;;;;5.10;3.40;;;;;;;12.20;98.37;100751.77;106075;1254;61808;-87
2023/05/01 09:57:58;;;;;;;4.00;2.10;;;;;;;12.24;97.86;100754.84;105988;1254;73840;-87
2023/05/01 10:00:25;;;;;;;1.90;1.70;;;;;;;12.33;98.82;100753.57;106109;1256;65504;-87
2023/05/01 10:02:52;;;;;;;4.30;2.30;;;;;;;12.41;98.19;100753.20;106012;1254;72769;-88
2023/05/01 10:05:20;;;;;;;4.70;4.30;;;;;;;12.45;96.94;100753.63;106019;1256;62123;-89
2023/05/01 10:08:09;;;;;;;5.00;1.90;;;;;;;12.45;95.52;100762.95;105799;1253;61072;-87
2023/05/01 10:10:36;;;;;;;4.70;1.90;;;;;;;12.44;95.43;100766.31;106025;1254;75048;-87
2023/05/01 10:13:14;;;;;;;1.80;1.70;;;;;;;12.43;95.33;100773.91;106014;1256;64642;-88
2023/05/01 10:15:42;;;;;;;3.30;1.80;;;;;;;12.44;95.27;100773.14;106025;1254;71639;-86
2023/05/01 10:18:10;;;;;;;1.40;1.30;;;;;;;12.51;95.84;100773.43;106275;1252;63069;-87
2023/05/01 10:20:37;;;;;;;2.30;1.80;;;;;;;12.61;95.62;100774.48;106391;1254;61210;-85
2023/05/01 10:23:04;;;;;;;2.60;1.80;;;;;;;12.75;95.29;100778.34;106399;1254;74532;-87
2023/05/01 10:25:32;;;;;;;2.80;1.70;;;;;;;12.93;94.50;100780.08;106125;1253;64732;-89
2023/05/01 10:28:02;;;;;;;4.60;3.00;;;;;;;13.19;94.15;100781.32;105921;1256;73796;-88
2023/05/01 10:30:30;;;;;;;5.40;4.80;;;;;;;13.49;93.92;100785.05;105768;1259;60499;-87
2023/05/01 10:32:58;;;;;;;47.30;30.90;;;;;;;13.84;93.34;100788.24;106094;1255;60559;-89
2023/05/01 10:35:32;;;;;;;5.90;4.60;;;;;;;14.12;90.59;100789.08;105973;1254;74781;-88
2023/05/01 10:38:05;;;;;;;5.10;4.30;;;;;;;14.31;88.20;100789.77;106253;1256;64767;-88
2023/05/01 10:40:37;;;;;;;3.80;2.60;;;;;;;14.45;87.67;100792.08;108326;1254;73673;-85
2023/05/01 10:43:17;;;;;;;3.80;2.00;;;;;;;14.60;86.63;100785.22;107464;1256;60689;-87
2023/05/01 10:45:44;;;;;;;3.60;1.20;;;;;;;14.70;85.41;100789.60;106987;1254;60342;-89
2023/05/01 10:48:20;;;;;;;1.40;0.90;;;;;;;14.77;85.40;100787.65;106445;1254;75245;-87
2023/05/01 10:51:10;;;;;;;2.60;1.30;;;;;;;14.90;85.90;100790.02;106185;1256;64829;-90
2023/05/01 10:53:38;;;;;;;1.70;0.60;;;;;;;15.02;85.10;100790.38;106905;1254;73862;-89
2023/05/01 10:56:25;;;;;;;1.10;0.70;;;;;;;15.07;85.41;100790.47;107268;1254;60344;-86
2023/05/01 10:58:57;;;;;;;1.40;0.80;;;;;;;15.19;84.07;100791.85;106848;1254;61294;-90
2023/05/01 11:01:27;;;;;;;2.10;0.90;;;;;;;15.27;82.73;100793.58;106668;1254;74960;-88
2023/05/01 11:03:55;;;;;;;6.40;1.00;;;;;;;15.38;82.79;100796.05;108882;1253;64698;-88
2023/05/01 11:06:23;;;;;;;11.20;10.00;;;;;;;15.50;82.38;100799.38;109186;1256;72639;-91
2023/05/01 11:08:51;;;;;;;21.60;18.60;;;;;;;15.74;81.86;100798.55;107310;1253;60453;-90
2023/05/01 11:11:21;;;;;;;3.80;1.80;;;;;;;16.00;80.13;100805.89;107129;1254;61206;-89
2023/05/01 11:14:02;;;;;;;22.90;18.30;;;;;;;16.38;77.52;100807.05;106313;1254;73246;-89
2023/05/01 11:16:34;;;;;;;4.00;3.50;;;;;;;16.75;72.71;100812.09;106099;1254;63534;-90
2023/05/01 11:19:01;;;;;;;2.80;1.60;;;;;;;16.84;71.66;100810.66;106729;1254;72940;-88
2023/05/01 11:21:29;;;;;;;5.20;2.80;;;;;;;16.93;70.01;100811.35;106280;1253;61376;-88
2023/05/01 11:23:56;;;;;;;4.40;2.60;;;;;;;16.94;68.61;100813.21;108095;1253;61600;-91
2023/05/01 11:26:23;;;;;;;2.60;1.20;;;;;;;16.91;66.70;100817.41;109645;1252;73943;-88